sensor_id;sensor_type;location;lat;lon;timestamp;P1;durP1;ratioP1;P2;durP2;ratioP2
11823;SDS011;5969;50.780;7.726;2022-12-26T06:19:23;3.42;;;1.73;;
11823;SDS011;5969;50.780;7.726;2022-12-26T06:21:50;5.28;;;2.20;;
11823;SDS011;5969;50.780;7.726;2022-12-26T06:24:17;4.32;;;2.03;;
11823;SDS011;5969;50.780;7.726;2022-12-26T06:26:43;4.10;;;2.30;;
11823;SDS011;5969;50.780;7.726;2022-12-26T06:29:10;3.80;;;2.13;;
11823;SDS011;5969;50.780;7.726;2022-12-26T06:31:37;3.17;;;1.92;;
11823;SDS011;5969;50.780;7.726;2022-12-26T06:34:05;4.55;;;2.53;;
11823;SDS011;5969;50.780;7.726;2022-12-26T06:36:32;2.95;;;1.92;;
11823;SDS011;5969;50.780;7.726;2022-12-26T06:38:59;2.60;;;1.92;;
11823;SDS011;5969;50.780;7.726;2022-12-26T06:41:26;3.70;;;2.40;;
11823;SDS011;5969;50.780;7.726;2022-12-26T06:43:53;3.53;;;2.30;;
11823;SDS011;5969;50.780;7.726;2022-12-26T06:46:22;4.18;;;2.00;;
11823;SDS011;5969;50.780;7.726;2022-12-26T06:48:49;4.40;;;2.50;;
11823;SDS011;5969;50.780;7.726;2022-12-26T06:51:19;4.10;;;2.13;;
11823;SDS011;5969;50.780;7.726;2022-12-26T06:53:47;4.43;;;2.40;;
11823;SDS011;5969;50.780;7.726;2022-12-26T06:56:16;6.22;;;1.85;;
11823;SDS011;5969;50.780;7.726;2022-12-26T06:58:45;5.28;;;2.30;;
11823;SDS011;5969;50.780;7.726;2022-12-26T07:01:12;4.70;;;2.28;;
11823;SDS011;5969;50.780;7.726;2022-12-26T07:03:41;4.75;;;2.67;;
11823;SDS011;5969;50.780;7.726;2022-12-26T07:06:10;2.95;;;2.30;;
11823;SDS011;5969;50.780;7.726;2022-12-26T07:08:39;6.80;;;2.55;;
11823;SDS011;5969;50.780;7.726;2022-12-26T07:11:11;3.63;;;2.38;;
11823;SDS011;5969;50.780;7.726;2022-12-26T07:13:38;4.50;;;2.40;;
11823;SDS011;5969;50.780;7.726;2022-12-26T07:16:05;8.15;;;2.50;;
11823;SDS011;5969;50.780;7.726;2022-12-26T07:18:32;3.97;;;2.47;;
11823;SDS011;5969;50.780;7.726;2022-12-26T07:20:59;3.17;;;1.50;;
11823;SDS011;5969;50.780;7.726;2022-12-26T07:23:29;2.92;;;1.80;;
11823;SDS011;5969;50.780;7.726;2022-12-26T07:25:57;2.92;;;2.25;;
11823;SDS011;5969;50.780;7.726;2022-12-26T07:28:24;1.35;;;1.25;;
11823;SDS011;5969;50.780;7.726;2022-12-26T07:30:51;1.17;;;1.00;;
11823;SDS011;5969;50.780;7.726;2022-12-26T07:33:17;2.22;;;1.38;;
11823;SDS011;5969;50.780;7.726;2022-12-26T07:35:44;0.90;;;0.80;;
11823;SDS011;5969;50.780;7.726;2022-12-26T07:38:11;1.73;;;1.63;;
11823;SDS011;5969;50.780;7.726;2022-12-26T07:40:38;2.88;;;2.28;;
11823;SDS011;5969;50.780;7.726;2022-12-26T07:43:09;1.75;;;0.90;;
11823;SDS011;5969;50.780;7.726;2022-12-26T07:45:35;3.38;;;1.38;;
11823;SDS011;5969;50.780;7.726;2022-12-26T07:48:02;1.45;;;0.82;;
11823;SDS011;5969;50.780;7.726;2022-12-26T07:50:29;1.05;;;0.80;;
11823;SDS011;5969;50.780;7.726;2022-12-26T07:52:57;1.67;;;0.90;;
11823;SDS011;5969;50.780;7.726;2022-12-26T07:55:26;1.38;;;1.10;;
11823;SDS011;5969;50.780;7.726;2022-12-26T07:58:09;2.22;;;1.10;;
11823;SDS011;5969;50.780;7.726;2022-12-26T08:00:36;1.65;;;1.20;;
11823;SDS011;5969;50.780;7.726;2022-12-26T08:03:02;1.27;;;1.08;;
11823;SDS011;5969;50.780;7.726;2022-12-26T08:05:29;2.08;;;1.88;;
11823;SDS011;5969;50.780;7.726;2022-12-26T08:07:56;2.45;;;2.25;;
11823;SDS011;5969;50.780;7.726;2022-12-26T08:10:32;4.50;;;4.03;;
11823;SDS011;5969;50.780;7.726;2022-12-26T08:12:59;3.28;;;2.92;;
11823;SDS011;5969;50.780;7.726;2022-12-26T08:15:27;2.58;;;2.03;;
11823;SDS011;5969;50.780;7.726;2022-12-26T08:17:56;2.70;;;2.17;;
11823;SDS011;5969;50.780;7.726;2022-12-26T08:20:23;5.03;;;4.53;;
11823;SDS011;5969;50.780;7.726;2022-12-26T08:22:50;3.72;;;2.90;;
11823;SDS011;5969;50.780;7.726;2022-12-26T08:25:17;7.50;;;6.30;;
11823;SDS011;5969;50.780;7.726;2022-12-26T08:27:43;2.50;;;2.22;;
11823;SDS011;5969;50.780;7.726;2022-12-26T08:30:10;2.00;;;1.20;;
11823;SDS011;5969;50.780;7.726;2022-12-26T08:32:42;1.20;;;1.10;;
11823;SDS011;5969;50.780;7.726;2022-12-26T08:35:09;4.97;;;4.47;;
11823;SDS011;5969;50.780;7.726;2022-12-26T08:37:35;13.48;;;12.05;;
11823;SDS011;5969;50.780;7.726;2022-12-26T08:40:03;19.63;;;17.00;;
11823;SDS011;5969;50.780;7.726;2022-12-26T08:42:30;22.77;;;18.90;;
11823;SDS011;5969;50.780;7.726;2022-12-26T08:44:57;26.73;;;22.75;;
11823;SDS011;5969;50.780;7.726;2022-12-26T08:47:24;12.55;;;10.07;;
11823;SDS011;5969;50.780;7.726;2022-12-26T08:49:52;59.88;;;44.17;;
11823;SDS011;5969;50.780;7.726;2022-12-26T08:52:19;9.93;;;7.75;;
11823;SDS011;5969;50.780;7.726;2022-12-26T08:54:46;7.53;;;6.45;;
11823;SDS011;5969;50.780;7.726;2022-12-26T08:57:13;3.63;;;2.90;;
11823;SDS011;5969;50.780;7.726;2022-12-26T08:59:40;2.47;;;2.00;;
11823;SDS011;5969;50.780;7.726;2022-12-26T09:02:07;3.08;;;1.80;;
11823;SDS011;5969;50.780;7.726;2022-12-26T09:04:35;3.17;;;1.67;;
11823;SDS011;5969;50.780;7.726;2022-12-26T09:07:05;2.08;;;1.70;;
11823;SDS011;5969;50.780;7.726;2022-12-26T09:09:34;6.78;;;5.70;;
11823;SDS011;5969;50.780;7.726;2022-12-26T09:12:01;4.20;;;3.40;;
11823;SDS011;5969;50.780;7.726;2022-12-26T09:14:27;3.88;;;3.25;;
11823;SDS011;5969;50.780;7.726;2022-12-26T09:16:54;1.50;;;1.40;;
11823;SDS011;5969;50.780;7.726;2022-12-26T09:19:22;1.83;;;1.67;;
11823;SDS011;5969;50.780;7.726;2022-12-26T09:21:53;4.03;;;3.50;;
11823;SDS011;5969;50.780;7.726;2022-12-26T09:24:49;13.95;;;11.88;;
11823;SDS011;5969;50.780;7.726;2022-12-26T09:27:16;3.28;;;2.88;;
11823;SDS011;5969;50.780;7.726;2022-12-26T09:29:42;1.63;;;1.45;;
11823;SDS011;5969;50.780;7.726;2022-12-26T09:32:09;1.60;;;1.50;;
11823;SDS011;5969;50.780;7.726;2022-12-26T09:34:36;2.03;;;1.83;;
11823;SDS011;5969;50.780;7.726;2022-12-26T09:37:03;3.40;;;2.90;;
11823;SDS011;5969;50.780;7.726;2022-12-26T09:39:29;4.15;;;3.10;;
11823;SDS011;5969;50.780;7.726;2022-12-26T09:42:00;2.80;;;2.60;;
11823;SDS011;5969;50.780;7.726;2022-12-26T09:44:36;2.42;;;1.88;;
11823;SDS011;5969;50.780;7.726;2022-12-26T09:47:15;3.45;;;2.90;;
11823;SDS011;5969;50.780;7.726;2022-12-26T09:49:53;3.13;;;1.77;;
11823;SDS011;5969;50.780;7.726;2022-12-26T09:52:22;2.10;;;1.77;;
11823;SDS011;5969;50.780;7.726;2022-12-26T09:54:53;3.35;;;1.75;;
11823;SDS011;5969;50.780;7.726;2022-12-26T09:57:32;3.25;;;2.15;;
11823;SDS011;5969;50.780;7.726;2022-12-26T10:00:04;2.60;;;1.90;;
11823;SDS011;5969;50.780;7.726;2022-12-26T10:02:32;1.55;;;1.38;;
11823;SDS011;5969;50.780;7.726;2022-12-26T10:04:59;1.70;;;1.50;;
11823;SDS011;5969;50.780;7.726;2022-12-26T10:07:28;1.52;;;1.40;;
11823;SDS011;5969;50.780;7.726;2022-12-26T10:10:12;2.60;;;1.20;;
11823;SDS011;5969;50.780;7.726;2022-12-26T10:12:49;2.35;;;1.42;;
11823;SDS011;5969;50.780;7.726;2022-12-26T10:15:27;2.03;;;1.10;;
11823;SDS011;5969;50.780;7.726;2022-12-26T10:18:02;1.23;;;1.00;;
11823;SDS011;5969;50.780;7.726;2022-12-26T10:20:41;1.65;;;1.20;;
11823;SDS011;5969;50.780;7.726;2022-12-26T10:23:25;1.58;;;1.10;;
11823;SDS011;5969;50.780;7.726;2022-12-26T10:25:57;1.90;;;1.70;;
11823;SDS011;5969;50.780;7.726;2022-12-26T10:28:33;1.85;;;1.40;;
11823;SDS011;5969;50.780;7.726;2022-12-26T10:31:05;1.90;;;1.25;;
11823;SDS011;5969;50.780;7.726;2022-12-26T10:33:40;2.38;;;1.05;;
11823;SDS011;5969;50.780;7.726;2022-12-26T10:36:13;2.75;;;2.50;;
11823;SDS011;5969;50.780;7.726;2022-12-26T10:38:45;1.88;;;1.30;;
11823;SDS011;5969;50.780;7.726;2022-12-26T10:41:17;3.22;;;1.10;;
11823;SDS011;5969;50.780;7.726;2022-12-26T10:43:49;2.53;;;1.17;;
11823;SDS011;5969;50.780;7.726;2022-12-26T10:46:24;1.48;;;1.30;;
11823;SDS011;5969;50.780;7.726;2022-12-26T10:49:17;1.40;;;1.17;;
11823;SDS011;5969;50.780;7.726;2022-12-26T10:51:47;2.30;;;1.85;;
11823;SDS011;5969;50.780;7.726;2022-12-26T10:54:16;2.78;;;1.20;;
11823;SDS011;5969;50.780;7.726;2022-12-26T10:56:44;2.17;;;1.52;;
11823;SDS011;5969;50.780;7.726;2022-12-26T10:59:16;2.75;;;1.00;;
11823;SDS011;5969;50.780;7.726;2022-12-26T11:01:47;1.17;;;1.08;;
11823;SDS011;5969;50.780;7.726;2022-12-26T11:04:16;3.30;;;1.20;;
11823;SDS011;5969;50.780;7.726;2022-12-26T11:06:52;2.63;;;1.88;;
11823;SDS011;5969;50.780;7.726;2022-12-26T11:09:30;2.88;;;1.83;;
11823;SDS011;5969;50.780;7.726;2022-12-26T11:12:05;2.90;;;1.75;;
11823;SDS011;5969;50.780;7.726;2022-12-26T11:14:44;2.15;;;1.40;;
11823;SDS011;5969;50.780;7.726;2022-12-26T11:17:12;2.30;;;1.40;;
11823;SDS011;5969;50.780;7.726;2022-12-26T11:19:49;2.55;;;2.35;;
11823;SDS011;5969;50.780;7.726;2022-12-26T11:22:36;3.83;;;3.53;;
11823;SDS011;5969;50.780;7.726;2022-12-26T11:27:52;7.50;;;5.97;;
11823;SDS011;5969;50.780;7.726;2022-12-26T11:30:26;2.55;;;1.90;;
11823;SDS011;5969;50.780;7.726;2022-12-26T11:33:20;1.50;;;1.40;;
11823;SDS011;5969;50.780;7.726;2022-12-26T11:35:53;4.18;;;2.90;;
11823;SDS011;5969;50.780;7.726;2022-12-26T11:38:28;1.83;;;1.38;;
11823;SDS011;5969;50.780;7.726;2022-12-26T11:41:03;2.38;;;1.52;;
11823;SDS011;5969;50.780;7.726;2022-12-26T11:43:52;4.90;;;3.40;;
11823;SDS011;5969;50.780;7.726;2022-12-26T11:46:21;2.30;;;1.33;;
11823;SDS011;5969;50.780;7.726;2022-12-26T11:48:58;3.35;;;1.63;;
11823;SDS011;5969;50.780;7.726;2022-12-26T11:51:36;4.05;;;2.92;;
11823;SDS011;5969;50.780;7.726;2022-12-26T11:54:16;2.03;;;1.70;;
11823;SDS011;5969;50.780;7.726;2022-12-26T11:56:58;3.33;;;2.28;;
11823;SDS011;5969;50.780;7.726;2022-12-26T11:59:27;2.90;;;2.60;;
11823;SDS011;5969;50.780;7.726;2022-12-26T12:04:51;6.15;;;3.10;;
11823;SDS011;5969;50.780;7.726;2022-12-26T12:07:25;3.17;;;1.98;;
11823;SDS011;5969;50.780;7.726;2022-12-26T12:10:22;3.92;;;2.20;;
11823;SDS011;5969;50.780;7.726;2022-12-26T12:13:15;7.70;;;4.90;;
11823;SDS011;5969;50.780;7.726;2022-12-26T12:15:51;1.55;;;1.10;;
11823;SDS011;5969;50.780;7.726;2022-12-26T12:18:28;4.47;;;2.03;;
11823;SDS011;5969;50.780;7.726;2022-12-26T12:21:09;2.40;;;1.70;;
11823;SDS011;5969;50.780;7.726;2022-12-26T12:23:46;2.70;;;1.40;;
11823;SDS011;5969;50.780;7.726;2022-12-26T12:26:25;3.58;;;1.48;;
11823;SDS011;5969;50.780;7.726;2022-12-26T12:29:04;2.08;;;1.27;;
11823;SDS011;5969;50.780;7.726;2022-12-26T12:31:42;2.95;;;1.65;;
11823;SDS011;5969;50.780;7.726;2022-12-26T12:34:22;1.15;;;0.95;;
11823;SDS011;5969;50.780;7.726;2022-12-26T12:36:59;2.55;;;1.60;;
11823;SDS011;5969;50.780;7.726;2022-12-26T12:39:44;2.90;;;1.08;;
11823;SDS011;5969;50.780;7.726;2022-12-26T12:42:21;2.08;;;1.20;;
11823;SDS011;5969;50.780;7.726;2022-12-26T12:45:03;1.85;;;1.08;;
11823;SDS011;5969;50.780;7.726;2022-12-26T12:47:47;2.85;;;1.30;;
11823;SDS011;5969;50.780;7.726;2022-12-26T12:50:22;3.40;;;1.10;;
11823;SDS011;5969;50.780;7.726;2022-12-26T12:52:57;3.17;;;1.00;;
11823;SDS011;5969;50.780;7.726;2022-12-26T12:58:23;2.47;;;1.00;;
11823;SDS011;5969;50.780;7.726;2022-12-26T13:00:58;5.72;;;1.30;;
11823;SDS011;5969;50.780;7.726;2022-12-26T13:03:29;3.13;;;1.15;;
11823;SDS011;5969;50.780;7.726;2022-12-26T13:06:03;2.10;;;1.00;;
11823;SDS011;5969;50.780;7.726;2022-12-26T13:08:35;2.33;;;1.02;;
11823;SDS011;5969;50.780;7.726;2022-12-26T13:11:05;2.80;;;1.15;;
11823;SDS011;5969;50.780;7.726;2022-12-26T13:13:36;3.60;;;1.20;;
11823;SDS011;5969;50.780;7.726;2022-12-26T13:16:09;3.40;;;1.20;;
11823;SDS011;5969;50.780;7.726;2022-12-26T13:18:39;2.17;;;1.25;;
11823;SDS011;5969;50.780;7.726;2022-12-26T13:21:17;3.40;;;1.17;;
11823;SDS011;5969;50.780;7.726;2022-12-26T13:23:46;2.88;;;1.10;;
11823;SDS011;5969;50.780;7.726;2022-12-26T13:26:36;3.20;;;0.93;;
11823;SDS011;5969;50.780;7.726;2022-12-26T13:29:06;1.38;;;0.85;;
11823;SDS011;5969;50.780;7.726;2022-12-26T13:31:37;2.05;;;0.90;;
11823;SDS011;5969;50.780;7.726;2022-12-26T13:34:06;3.72;;;1.00;;
11823;SDS011;5969;50.780;7.726;2022-12-26T13:36:40;2.75;;;0.70;;
11823;SDS011;5969;50.780;7.726;2022-12-26T13:42:14;1.75;;;0.95;;
11823;SDS011;5969;50.780;7.726;2022-12-26T13:51:41;3.25;;;0.90;;
11823;SDS011;5969;50.780;7.726;2022-12-26T13:54:13;2.15;;;1.17;;
11823;SDS011;5969;50.780;7.726;2022-12-26T13:56:50;2.30;;;1.00;;
11823;SDS011;5969;50.780;7.726;2022-12-26T14:00:14;1.58;;;1.20;;
11823;SDS011;5969;50.780;7.726;2022-12-26T14:09:40;0.82;;;0.70;;
11823;SDS011;5969;50.780;7.726;2022-12-26T14:12:29;1.40;;;0.70;;
11823;SDS011;5969;50.780;7.726;2022-12-26T14:15:14;1.20;;;0.70;;
11823;SDS011;5969;50.780;7.726;2022-12-26T14:17:54;2.55;;;1.00;;
11823;SDS011;5969;50.780;7.726;2022-12-26T14:20:42;1.25;;;0.77;;
11823;SDS011;5969;50.780;7.726;2022-12-26T14:23:22;2.03;;;1.23;;
11823;SDS011;5969;50.780;7.726;2022-12-26T14:25:58;0.98;;;0.70;;
11823;SDS011;5969;50.780;7.726;2022-12-26T14:28:31;2.38;;;0.98;;
11823;SDS011;5969;50.780;7.726;2022-12-26T14:31:13;1.20;;;0.90;;
11823;SDS011;5969;50.780;7.726;2022-12-26T14:33:48;3.03;;;0.80;;
11823;SDS011;5969;50.780;7.726;2022-12-26T14:36:23;1.67;;;0.88;;
11823;SDS011;5969;50.780;7.726;2022-12-26T14:39:01;2.35;;;0.70;;
11823;SDS011;5969;50.780;7.726;2022-12-26T14:45:00;1.30;;;0.82;;
11823;SDS011;5969;50.780;7.726;2022-12-26T14:47:34;0.80;;;0.70;;
11823;SDS011;5969;50.780;7.726;2022-12-26T14:53:16;4.50;;;2.05;;
11823;SDS011;5969;50.780;7.726;2022-12-26T14:55:58;1.10;;;0.70;;
11823;SDS011;5969;50.780;7.726;2022-12-26T14:58:38;1.00;;;0.60;;
11823;SDS011;5969;50.780;7.726;2022-12-26T15:04:21;2.45;;;0.70;;
11823;SDS011;5969;50.780;7.726;2022-12-26T15:07:08;3.50;;;0.90;;
11823;SDS011;5969;50.780;7.726;2022-12-26T15:10:04;3.47;;;0.98;;
11823;SDS011;5969;50.780;7.726;2022-12-26T15:13:03;1.35;;;0.95;;
11823;SDS011;5969;50.780;7.726;2022-12-26T15:15:53;1.98;;;1.20;;
11823;SDS011;5969;50.780;7.726;2022-12-26T15:21:37;2.53;;;1.20;;
11823;SDS011;5969;50.780;7.726;2022-12-26T15:24:51;2.75;;;1.10;;
11823;SDS011;5969;50.780;7.726;2022-12-26T15:27:42;2.83;;;1.52;;
11823;SDS011;5969;50.780;7.726;2022-12-26T15:30:35;2.05;;;1.27;;
11823;SDS011;5969;50.780;7.726;2022-12-26T15:33:28;2.70;;;1.67;;
11823;SDS011;5969;50.780;7.726;2022-12-26T15:36:02;4.80;;;1.40;;
11823;SDS011;5969;50.780;7.726;2022-12-26T15:38:33;2.90;;;1.80;;
11823;SDS011;5969;50.780;7.726;2022-12-26T15:41:10;3.92;;;1.75;;
11823;SDS011;5969;50.780;7.726;2022-12-26T15:43:42;3.00;;;2.00;;
11823;SDS011;5969;50.780;7.726;2022-12-26T15:46:23;3.20;;;2.40;;
11823;SDS011;5969;50.780;7.726;2022-12-26T15:49:01;2.35;;;2.13;;
11823;SDS011;5969;50.780;7.726;2022-12-26T15:51:46;2.25;;;2.05;;
11823;SDS011;5969;50.780;7.726;2022-12-26T15:54:37;2.22;;;1.85;;
11823;SDS011;5969;50.780;7.726;2022-12-26T15:57:36;2.85;;;2.30;;
11823;SDS011;5969;50.780;7.726;2022-12-26T16:00:10;4.85;;;2.05;;
11823;SDS011;5969;50.780;7.726;2022-12-26T16:02:44;2.85;;;1.95;;
11823;SDS011;5969;50.780;7.726;2022-12-26T16:05:25;4.63;;;2.20;;
11823;SDS011;5969;50.780;7.726;2022-12-26T16:08:01;2.80;;;1.80;;
11823;SDS011;5969;50.780;7.726;2022-12-26T16:10:36;3.15;;;1.92;;
11823;SDS011;5969;50.780;7.726;2022-12-26T16:13:05;3.40;;;2.05;;
11823;SDS011;5969;50.780;7.726;2022-12-26T16:15:47;2.28;;;1.90;;
11823;SDS011;5969;50.780;7.726;2022-12-26T16:18:18;4.53;;;1.88;;
11823;SDS011;5969;50.780;7.726;2022-12-26T16:20:46;5.15;;;2.40;;
11823;SDS011;5969;50.780;7.726;2022-12-26T16:23:35;5.07;;;2.40;;
11823;SDS011;5969;50.780;7.726;2022-12-26T16:26:04;2.63;;;1.90;;
11823;SDS011;5969;50.780;7.726;2022-12-26T16:28:32;2.80;;;2.20;;
11823;SDS011;5969;50.780;7.726;2022-12-26T16:31:01;3.42;;;2.53;;
11823;SDS011;5969;50.780;7.726;2022-12-26T16:33:31;4.10;;;2.63;;
11823;SDS011;5969;50.780;7.726;2022-12-26T16:36:03;4.82;;;3.22;;
11823;SDS011;5969;50.780;7.726;2022-12-26T16:38:32;4.50;;;2.92;;
11823;SDS011;5969;50.780;7.726;2022-12-26T16:40:58;4.47;;;2.28;;
11823;SDS011;5969;50.780;7.726;2022-12-26T16:43:26;6.88;;;2.60;;
11823;SDS011;5969;50.780;7.726;2022-12-26T16:45:55;3.13;;;2.58;;
11823;SDS011;5969;50.780;7.726;2022-12-26T16:48:25;5.22;;;3.40;;
11823;SDS011;5969;50.780;7.726;2022-12-26T16:50:56;6.20;;;4.45;;
11823;SDS011;5969;50.780;7.726;2022-12-26T16:53:39;6.32;;;4.60;;
11823;SDS011;5969;50.780;7.726;2022-12-26T16:56:19;6.20;;;3.80;;
11823;SDS011;5969;50.780;7.726;2022-12-26T16:58:53;4.22;;;2.72;;
11823;SDS011;5969;50.780;7.726;2022-12-26T17:01:22;3.85;;;3.15;;
11823;SDS011;5969;50.780;7.726;2022-12-26T17:03:50;4.30;;;2.72;;
11823;SDS011;5969;50.780;7.726;2022-12-26T17:06:24;5.70;;;2.80;;
11823;SDS011;5969;50.780;7.726;2022-12-26T17:08:53;4.20;;;2.83;;
11823;SDS011;5969;50.780;7.726;2022-12-26T17:11:25;4.53;;;2.70;;
11823;SDS011;5969;50.780;7.726;2022-12-26T17:13:54;3.03;;;2.50;;
11823;SDS011;5969;50.780;7.726;2022-12-26T17:16:22;5.10;;;2.53;;
11823;SDS011;5969;50.780;7.726;2022-12-26T17:18:50;4.50;;;2.55;;
11823;SDS011;5969;50.780;7.726;2022-12-26T17:21:29;4.90;;;2.50;;
11823;SDS011;5969;50.780;7.726;2022-12-26T17:26:52;4.60;;;2.55;;
11823;SDS011;5969;50.780;7.726;2022-12-26T17:29:36;5.60;;;2.72;;
11823;SDS011;5969;50.780;7.726;2022-12-26T17:32:15;4.45;;;3.08;;
11823;SDS011;5969;50.780;7.726;2022-12-26T17:34:53;2.55;;;2.17;;
11823;SDS011;5969;50.780;7.726;2022-12-26T17:37:22;7.65;;;3.15;;
11823;SDS011;5969;50.780;7.726;2022-12-26T17:39:51;5.05;;;2.65;;
11823;SDS011;5969;50.780;7.726;2022-12-26T17:42:19;4.57;;;2.97;;
11823;SDS011;5969;50.780;7.726;2022-12-26T17:44:46;5.80;;;2.90;;
11823;SDS011;5969;50.780;7.726;2022-12-26T17:47:16;7.63;;;3.75;;
11823;SDS011;5969;50.780;7.726;2022-12-26T17:49:45;6.82;;;2.83;;
11823;SDS011;5969;50.780;7.726;2022-12-26T17:52:13;7.25;;;3.50;;
11823;SDS011;5969;50.780;7.726;2022-12-26T17:54:43;5.18;;;3.55;;
11823;SDS011;5969;50.780;7.726;2022-12-26T17:57:14;6.70;;;3.33;;
11823;SDS011;5969;50.780;7.726;2022-12-26T17:59:43;3.95;;;3.20;;
11823;SDS011;5969;50.780;7.726;2022-12-26T18:02:10;8.60;;;3.00;;
11823;SDS011;5969;50.780;7.726;2022-12-26T18:04:37;5.85;;;3.58;;
11823;SDS011;5969;50.780;7.726;2022-12-26T18:07:04;7.65;;;4.00;;
11823;SDS011;5969;50.780;7.726;2022-12-26T18:09:31;4.70;;;3.95;;
11823;SDS011;5969;50.780;7.726;2022-12-26T18:11:59;6.93;;;5.18;;
11823;SDS011;5969;50.780;7.726;2022-12-26T18:14:26;10.27;;;5.38;;
11823;SDS011;5969;50.780;7.726;2022-12-26T18:16:53;7.75;;;5.53;;
11823;SDS011;5969;50.780;7.726;2022-12-26T18:19:20;9.10;;;5.57;;
11823;SDS011;5969;50.780;7.726;2022-12-26T18:21:47;9.63;;;5.97;;
11823;SDS011;5969;50.780;7.726;2022-12-26T18:24:14;9.50;;;6.53;;
11823;SDS011;5969;50.780;7.726;2022-12-26T18:26:41;7.63;;;5.72;;
11823;SDS011;5969;50.780;7.726;2022-12-26T18:29:10;10.98;;;6.03;;
11823;SDS011;5969;50.780;7.726;2022-12-26T18:31:37;17.08;;;10.52;;
11823;SDS011;5969;50.780;7.726;2022-12-26T18:34:04;9.55;;;6.32;;
11823;SDS011;5969;50.780;7.726;2022-12-26T18:36:32;21.27;;;15.48;;
11823;SDS011;5969;50.780;7.726;2022-12-26T18:39:00;10.55;;;6.25;;
11823;SDS011;5969;50.780;7.726;2022-12-26T18:41:28;13.32;;;10.60;;
11823;SDS011;5969;50.780;7.726;2022-12-26T18:43:55;8.60;;;6.40;;
11823;SDS011;5969;50.780;7.726;2022-12-26T18:46:25;9.90;;;7.22;;
11823;SDS011;5969;50.780;7.726;2022-12-26T18:48:53;12.70;;;9.98;;
11823;SDS011;5969;50.780;7.726;2022-12-26T18:51:21;12.45;;;7.63;;
11823;SDS011;5969;50.780;7.726;2022-12-26T18:53:48;13.90;;;12.52;;
11823;SDS011;5969;50.780;7.726;2022-12-26T18:56:16;15.40;;;13.80;;
11823;SDS011;5969;50.780;7.726;2022-12-26T18:58:44;13.13;;;9.35;;
11823;SDS011;5969;50.780;7.726;2022-12-26T19:01:12;13.07;;;10.43;;
11823;SDS011;5969;50.780;7.726;2022-12-26T19:03:43;16.27;;;14.55;;
11823;SDS011;5969;50.780;7.726;2022-12-26T19:06:11;12.65;;;10.60;;
11823;SDS011;5969;50.780;7.726;2022-12-26T19:08:40;14.77;;;10.88;;
11823;SDS011;5969;50.780;7.726;2022-12-26T19:11:07;13.57;;;9.07;;
11823;SDS011;5969;50.780;7.726;2022-12-26T19:13:37;12.20;;;10.88;;
11823;SDS011;5969;50.780;7.726;2022-12-26T19:16:04;14.68;;;10.02;;
11823;SDS011;5969;50.780;7.726;2022-12-26T19:18:31;8.70;;;7.78;;
11823;SDS011;5969;50.780;7.726;2022-12-26T19:21:01;12.05;;;8.85;;
11823;SDS011;5969;50.780;7.726;2022-12-26T19:23:29;14.15;;;9.55;;
11823;SDS011;5969;50.780;7.726;2022-12-26T19:25:56;11.90;;;8.48;;
11823;SDS011;5969;50.780;7.726;2022-12-26T19:28:23;11.93;;;8.60;;
11823;SDS011;5969;50.780;7.726;2022-12-26T19:30:50;14.38;;;10.00;;
11823;SDS011;5969;50.780;7.726;2022-12-26T19:33:17;11.35;;;7.40;;
11823;SDS011;5969;50.780;7.726;2022-12-26T19:35:44;13.18;;;7.80;;
11823;SDS011;5969;50.780;7.726;2022-12-26T19:38:12;12.90;;;7.65;;
11823;SDS011;5969;50.780;7.726;2022-12-26T19:40:39;12.52;;;8.10;;
11823;SDS011;5969;50.780;7.726;2022-12-26T19:43:06;10.73;;;7.03;;
11823;SDS011;5969;50.780;7.726;2022-12-26T19:45:33;10.30;;;5.05;;
11823;SDS011;5969;50.780;7.726;2022-12-26T19:47:59;8.00;;;4.43;;
11823;SDS011;5969;50.780;7.726;2022-12-26T19:50:26;8.05;;;4.55;;
11823;SDS011;5969;50.780;7.726;2022-12-26T19:52:53;8.60;;;5.28;;
11823;SDS011;5969;50.780;7.726;2022-12-26T19:55:21;9.88;;;7.05;;
11823;SDS011;5969;50.780;7.726;2022-12-26T19:57:50;8.38;;;4.90;;
11823;SDS011;5969;50.780;7.726;2022-12-26T20:00:19;7.00;;;4.03;;
11823;SDS011;5969;50.780;7.726;2022-12-26T20:02:45;5.90;;;3.88;;
11823;SDS011;5969;50.780;7.726;2022-12-26T20:05:12;5.40;;;3.40;;
11823;SDS011;5969;50.780;7.726;2022-12-26T20:07:39;6.20;;;3.58;;
11823;SDS011;5969;50.780;7.726;2022-12-26T20:10:06;5.13;;;3.42;;
11823;SDS011;5969;50.780;7.726;2022-12-26T20:12:35;9.98;;;4.82;;
11823;SDS011;5969;50.780;7.726;2022-12-26T20:15:02;4.88;;;3.17;;
11823;SDS011;5969;50.780;7.726;2022-12-26T20:17:29;8.45;;;4.00;;
11823;SDS011;5969;50.780;7.726;2022-12-26T20:19:55;4.03;;;2.70;;
11823;SDS011;5969;50.780;7.726;2022-12-26T20:22:24;6.43;;;2.28;;
11823;SDS011;5969;50.780;7.726;2022-12-26T20:24:51;7.13;;;2.92;;
11823;SDS011;5969;50.780;7.726;2022-12-26T20:27:18;15.13;;;8.63;;
11823;SDS011;5969;50.780;7.726;2022-12-26T20:29:46;8.45;;;2.78;;
11823;SDS011;5969;50.780;7.726;2022-12-26T20:32:13;7.05;;;3.65;;
11823;SDS011;5969;50.780;7.726;2022-12-26T20:34:40;7.85;;;2.70;;
11823;SDS011;5969;50.780;7.726;2022-12-26T20:37:07;9.45;;;6.30;;
11823;SDS011;5969;50.780;7.726;2022-12-26T20:39:34;11.45;;;3.25;;
11823;SDS011;5969;50.780;7.726;2022-12-26T20:42:01;7.60;;;3.70;;
11823;SDS011;5969;50.780;7.726;2022-12-26T20:44:28;4.15;;;3.22;;
11823;SDS011;5969;50.780;7.726;2022-12-26T20:46:56;7.63;;;2.92;;
11823;SDS011;5969;50.780;7.726;2022-12-26T20:49:23;5.75;;;2.50;;
11823;SDS011;5969;50.780;7.726;2022-12-26T20:51:53;5.65;;;2.63;;
11823;SDS011;5969;50.780;7.726;2022-12-26T20:54:25;5.43;;;3.40;;
11823;SDS011;5969;50.780;7.726;2022-12-26T20:56:52;6.50;;;2.58;;
11823;SDS011;5969;50.780;7.726;2022-12-26T20:59:19;5.68;;;2.80;;
11823;SDS011;5969;50.780;7.726;2022-12-26T21:01:58;3.83;;;1.95;;
11823;SDS011;5969;50.780;7.726;2022-12-26T21:11:44;6.40;;;2.70;;
11823;SDS011;5969;50.780;7.726;2022-12-26T21:14:29;7.38;;;2.90;;
11823;SDS011;5969;50.780;7.726;2022-12-26T21:17:30;5.18;;;2.67;;
11823;SDS011;5969;50.780;7.726;2022-12-26T21:23:19;8.82;;;3.47;;
11823;SDS011;5969;50.780;7.726;2022-12-26T21:25:46;9.00;;;3.20;;
11823;SDS011;5969;50.780;7.726;2022-12-26T21:28:15;8.77;;;3.47;;
11823;SDS011;5969;50.780;7.726;2022-12-26T21:30:57;12.43;;;3.85;;
11823;SDS011;5969;50.780;7.726;2022-12-26T21:33:24;9.40;;;3.38;;
11823;SDS011;5969;50.780;7.726;2022-12-26T21:35:53;9.10;;;3.40;;
11823;SDS011;5969;50.780;7.726;2022-12-26T21:38:21;5.78;;;3.05;;
11823;SDS011;5969;50.780;7.726;2022-12-26T21:40:49;5.60;;;2.95;;
11823;SDS011;5969;50.780;7.726;2022-12-26T21:43:20;7.28;;;2.97;;
11823;SDS011;5969;50.780;7.726;2022-12-26T21:45:54;8.68;;;3.05;;
11823;SDS011;5969;50.780;7.726;2022-12-26T21:48:23;6.30;;;3.05;;
11823;SDS011;5969;50.780;7.726;2022-12-26T21:50:52;6.90;;;2.78;;
11823;SDS011;5969;50.780;7.726;2022-12-26T21:53:27;6.18;;;2.88;;
11823;SDS011;5969;50.780;7.726;2022-12-26T21:56:03;6.85;;;2.60;;
11823;SDS011;5969;50.780;7.726;2022-12-26T21:58:38;6.75;;;3.22;;
11823;SDS011;5969;50.780;7.726;2022-12-26T22:01:32;5.07;;;2.75;;
11823;SDS011;5969;50.780;7.726;2022-12-26T22:04:24;7.05;;;2.42;;
11823;SDS011;5969;50.780;7.726;2022-12-26T22:09:34;6.60;;;2.38;;
11823;SDS011;5969;50.780;7.726;2022-12-26T22:12:04;8.23;;;1.98;;
11823;SDS011;5969;50.780;7.726;2022-12-26T22:14:57;11.35;;;2.00;;
11823;SDS011;5969;50.780;7.726;2022-12-26T22:17:50;8.45;;;2.30;;
11823;SDS011;5969;50.780;7.726;2022-12-26T22:20:32;5.53;;;1.90;;
11823;SDS011;5969;50.780;7.726;2022-12-26T22:23:10;9.35;;;2.28;;
11823;SDS011;5969;50.780;7.726;2022-12-26T22:25:40;6.70;;;2.00;;
11823;SDS011;5969;50.780;7.726;2022-12-26T22:28:17;6.40;;;2.22;;
11823;SDS011;5969;50.780;7.726;2022-12-26T22:33:47;8.45;;;1.95;;
11823;SDS011;5969;50.780;7.726;2022-12-26T22:36:19;5.15;;;2.10;;
11823;SDS011;5969;50.780;7.726;2022-12-26T22:38:46;6.05;;;2.13;;
11823;SDS011;5969;50.780;7.726;2022-12-26T22:41:13;6.82;;;1.75;;
11823;SDS011;5969;50.780;7.726;2022-12-26T22:43:40;6.25;;;2.50;;
11823;SDS011;5969;50.780;7.726;2022-12-26T22:46:10;4.05;;;1.75;;
11823;SDS011;5969;50.780;7.726;2022-12-26T22:48:38;7.47;;;2.35;;